Time;durP1;ratioP1;P1;durP2;ratioP2;P2;SDS_P1;SDS_P2;PMS_P1;PMS_P2;Temp;Humidity;BMP_temperature;BMP_pressure;BME280_temperature;BME280_humidity;BME280_pressure;Samples;Min_cycle;Max_cycle;Signal;HPM_P1;HPM_P2
2021/11/22 00:00:21;;;;;;;30.77;17.67;;;4.90;99.90;;;;;;5071315;28;20024;-63
2021/11/22 00:02:48;;;;;;;31.27;16.73;;;4.80;99.90;;;;;;5069476;28;20033;-63
2021/11/22 00:05:14;;;;;;;28.42;16.20;;;4.80;99.90;;;;;;5061960;28;20030;-63
2021/11/22 00:07:40;;;;;;;31.90;18.08;;;4.80;99.90;;;;;;5074213;28;20075;-63
2021/11/22 00:10:06;;;;;;;32.45;18.02;;;5.30;99.90;;;;;;5065280;28;20049;-63
2021/11/22 00:12:35;;;;;;;32.47;17.38;;;4.80;99.90;;;;;;5046047;28;20107;-63
2021/11/22 00:15:04;;;;;;;32.05;18.77;;;4.70;99.90;;;;;;5065788;28;20096;-62
2021/11/22 00:17:31;;;;;;;34.35;17.80;;;5.30;99.90;;;;;;5056109;28;20034;-63
2021/11/22 00:19:58;;;;;;;29.77;16.63;;;4.90;99.90;;;;;;5053941;28;20036;-63
2021/11/22 00:22:25;;;;;;;29.13;16.58;;;4.50;99.90;;;;;;5070250;28;20398;-63
2021/11/22 00:24:52;;;;;;;28.55;16.52;;;5.10;99.90;;;;;;5072563;28;20016;-63
2021/11/22 00:27:17;;;;;;;29.73;17.35;;;4.90;99.90;;;;;;5070400;28;20070;-63
2021/11/22 00:29:43;;;;;;;28.70;16.45;;;4.90;99.90;;;;;;5056248;28;20032;-63
2021/11/22 00:32:09;;;;;;;26.80;16.80;;;4.60;99.90;;;;;;5070600;28;20063;-63
2021/11/22 00:34:41;;;;;;;29.77;17.67;;;4.80;99.90;;;;;;5066665;28;20048;-63
2021/11/22 00:37:12;;;;;;;26.90;17.00;;;4.90;99.90;;;;;;5070072;28;20052;-63
2021/11/22 00:39:38;;;;;;;30.38;18.17;;;4.80;99.90;;;;;;5073227;28;20157;-63
2021/11/22 00:42:07;;;;;;;32.60;18.25;;;4.90;99.90;;;;;;5061895;28;20119;-63
2021/11/22 00:44:33;;;;;;;30.83;18.73;;;5.40;99.90;;;;;;5068767;28;20394;-63
2021/11/22 00:46:59;;;;;;;37.45;19.55;;;4.90;99.90;;;;;;5068348;28;20104;-63
2021/11/22 00:49:24;;;;;;;36.63;18.65;;;5.10;99.90;;;;;;5070039;28;20171;-63
2021/11/22 00:51:50;;;;;;;33.22;19.38;;;;;;;;;;5072768;28;20563;-63
2021/11/22 00:54:16;;;;;;;36.47;20.23;;;4.80;99.90;;;;;;5069380;28;20035;-63
2021/11/22 00:56:42;;;;;;;35.30;19.95;;;5.10;99.90;;;;;;5069497;28;20033;-63
2021/11/22 00:59:07;;;;;;;38.17;20.70;;;5.30;99.90;;;;;;5071847;28;20025;-63
2021/11/22 01:01:33;;;;;;;37.95;20.38;;;2.40;99.90;;;;;;5063060;28;20028;-63
2021/11/22 01:03:59;;;;;;;37.10;20.63;;;4.60;99.90;;;;;;5069461;28;20016;-64
2021/11/22 01:06:24;;;;;;;39.33;22.63;;;5.10;99.90;;;;;;5063753;28;20496;-64
2021/11/22 01:08:50;;;;;;;43.08;21.95;;;5.10;99.90;;;;;;5069208;28;20052;-64
2021/11/22 01:11:16;;;;;;;45.08;22.65;;;4.90;99.90;;;;;;5065559;28;20096;-64
2021/11/22 01:13:41;;;;;;;41.17;22.02;;;4.90;99.90;;;;;;5059988;28;20024;-64
2021/11/22 01:16:08;;;;;;;43.85;23.42;;;4.90;99.90;;;;;;5068582;28;20082;-64
2021/11/22 01:18:33;;;;;;;43.42;21.85;;;4.80;99.90;;;;;;5051035;28;20442;-64
2021/11/22 01:20:59;;;;;;;42.55;21.55;;;4.80;99.90;;;;;;5071933;28;20060;-64
2021/11/22 01:23:25;;;;;;;44.20;22.13;;;4.90;99.90;;;;;;5069230;28;20109;-64
2021/11/22 01:25:50;;;;;;;41.67;22.35;;;4.60;99.90;;;;;;5058281;28;20537;-64
2021/11/22 01:28:16;;;;;;;45.80;22.58;;;4.90;99.90;;;;;;5066001;28;20016;-63
2021/11/22 01:30:42;;;;;;;40.28;22.83;;;5.00;99.90;;;;;;5069053;28;20108;-64
2021/11/22 01:33:08;;;;;;;51.45;23.20;;;5.00;99.90;;;;;;5060857;28;20082;-63
2021/11/22 01:35:34;;;;;;;40.42;22.48;;;4.90;99.90;;;;;;5071162;28;20028;-64
2021/11/22 01:38:00;;;;;;;42.30;21.95;;;5.00;99.90;;;;;;5060719;28;20036;-64
2021/11/22 01:40:27;;;;;;;37.45;20.70;;;4.80;99.90;;;;;;5069187;28;20475;-64
2021/11/22 01:42:53;;;;;;;37.75;19.90;;;4.70;99.90;;;;;;5068719;28;20390;-64
2021/11/22 01:45:20;;;;;;;36.15;20.30;;;4.80;99.90;;;;;;5062735;28;20039;-64
2021/11/22 01:47:46;;;;;;;40.25;19.90;;;4.70;99.90;;;;;;5055295;28;20025;-63
2021/11/22 01:50:15;;;;;;;38.78;19.90;;;5.10;99.90;;;;;;5042054;28;20028;-64
2021/11/22 01:52:42;;;;;;;42.35;22.40;;;4.60;99.90;;;;;;5069007;28;20052;-64
2021/11/22 01:55:09;;;;;;;42.72;20.70;;;4.90;99.90;;;;;;5067982;28;20039;-64
2021/11/22 01:57:36;;;;;;;39.78;19.48;;;4.80;99.90;;;;;;5061835;28;20029;-64
2021/11/22 02:00:11;;;;;;;41.28;20.42;;;4.70;99.90;;;;;;5070179;28;20062;-64
2021/11/22 02:02:37;;;;;;;38.92;20.05;;;4.70;99.90;;;;;;5060539;28;20033;-64
2021/11/22 02:05:03;;;;;;;41.63;21.42;;;4.60;99.90;;;;;;5067743;28;20033;-64
2021/11/22 02:07:29;;;;;;;36.70;19.58;;;4.60;99.90;;;;;;5071659;28;20059;-64
2021/11/22 02:09:55;;;;;;;40.30;20.15;;;4.70;99.90;;;;;;5065516;28;20052;-64
2021/11/22 02:12:21;;;;;;;34.85;18.27;;;4.30;99.90;;;;;;5068461;28;20032;-64
2021/11/22 02:14:47;;;;;;;36.60;19.25;;;4.90;99.90;;;;;;5062217;28;20036;-64
2021/11/22 02:17:12;;;;;;;35.58;18.30;;;4.70;99.90;;;;;;5064264;28;20032;-64
2021/11/22 02:19:50;;;;;;;39.35;19.70;;;4.70;99.90;;;;;;5052623;28;20029;-64
2021/11/22 02:22:16;;;;;;;37.17;19.20;;;4.80;99.90;;;;;;5061309;28;20390;-64
2021/11/22 02:24:42;;;;;;;35.85;19.10;;;4.70;99.90;;;;;;5070677;28;20021;-64
2021/11/22 02:27:07;;;;;;;40.10;19.63;;;7.00;99.90;;;;;;5057615;28;20031;-64
2021/11/22 02:29:33;;;;;;;37.80;19.00;;;4.70;99.90;;;;;;5053779;28;20100;-64
2021/11/22 02:31:59;;;;;;;35.40;18.55;;;4.50;99.90;;;;;;5031811;28;20030;-64
2021/11/22 02:34:25;;;;;;;36.97;17.65;;;4.90;99.90;;;;;;5061898;28;20139;-64
2021/11/22 02:36:50;;;;;;;39.63;19.13;;;5.80;99.90;;;;;;5068867;28;20021;-64
2021/11/22 02:39:16;;;;;;;38.10;18.77;;;4.50;99.90;;;;;;5064877;28;20426;-64
2021/11/22 02:41:45;;;;;;;36.53;18.30;;;4.90;99.90;;;;;;5071590;28;20025;-64
2021/11/22 02:44:11;;;;;;;34.03;18.65;;;4.70;99.90;;;;;;5075347;28;20490;-64
2021/11/22 02:46:36;;;;;;;36.33;18.75;;;4.60;99.90;;;;;;5070099;28;20173;-63
2021/11/22 02:49:02;;;;;;;34.60;18.33;;;5.00;99.90;;;;;;5054706;28;20017;-63
2021/11/22 02:51:28;;;;;;;36.08;18.17;;;5.60;99.90;;;;;;5073683;28;20021;-64
2021/11/22 02:53:58;;;;;;;35.10;18.52;;;4.80;99.90;;;;;;5071957;28;20394;-64
2021/11/22 02:56:30;;;;;;;34.08;18.50;;;4.80;99.90;;;;;;5070990;28;20024;-63
2021/11/22 02:58:56;;;;;;;37.13;18.58;;;4.80;99.90;;;;;;5066847;28;20110;-64
2021/11/22 03:01:22;;;;;;;33.33;16.42;;;4.80;99.90;;;;;;5071873;28;20085;-63
2021/11/22 03:03:48;;;;;;;33.10;16.98;;;4.80;99.90;;;;;;5065761;28;20557;-64
2021/11/22 03:06:16;;;;;;;34.85;17.08;;;4.60;99.90;;;;;;5070631;28;20027;-64
2021/11/22 03:08:44;;;;;;;33.78;18.30;;;4.70;99.90;;;;;;5072103;28;20024;-64
2021/11/22 03:11:10;;;;;;;36.00;18.02;;;5.10;99.90;;;;;;5063527;28;20032;-64
2021/11/22 03:13:38;;;;;;;36.95;17.40;;;4.90;99.90;;;;;;5071748;28;20051;-64
2021/11/22 03:16:05;;;;;;;34.53;18.02;;;4.70;99.90;;;;;;5070875;28;20016;-64
2021/11/22 03:18:30;;;;;;;34.85;18.40;;;4.90;99.90;;;;;;5066246;28;20101;-64
2021/11/22 03:20:57;;;;;;;35.17;18.35;;;4.90;99.90;;;;;;5070922;28;20029;-63
2021/11/22 03:23:23;;;;;;;36.95;18.60;;;4.90;99.90;;;;;;5066261;28;20028;-64
2021/11/22 03:25:49;;;;;;;38.55;19.33;;;4.90;99.90;;;;;;5070890;28;20036;-64
2021/11/22 03:28:17;;;;;;;37.53;20.30;;;5.00;99.90;;;;;;5071281;28;20028;-64
2021/11/22 03:30:43;;;;;;;38.50;18.30;;;4.80;99.90;;;;;;5066165;28;20148;-64
2021/11/22 03:33:09;;;;;;;38.53;19.00;;;5.10;99.90;;;;;;5071255;28;20082;-63
2021/11/22 03:35:34;;;;;;;38.10;20.42;;;5.20;99.90;;;;;;5070607;28;20052;-64
2021/11/22 03:38:00;;;;;;;34.47;18.00;;;5.10;99.90;;;;;;5074415;28;20079;-64
2021/11/22 03:40:26;;;;;;;43.70;21.00;;;5.10;99.90;;;;;;5072482;28;20055;-64
2021/11/22 03:43:01;;;;;;;35.08;19.40;;;4.80;99.90;;;;;;5051377;28;20036;-63
2021/11/22 03:45:27;;;;;;;36.50;19.35;;;4.90;99.90;;;;;;5033678;28;20048;-63
2021/11/22 03:47:52;;;;;;;35.40;18.27;;;4.90;99.90;;;;;;5058057;28;20025;-63
2021/11/22 03:50:18;;;;;;;39.78;20.02;;;5.10;99.90;;;;;;5071457;28;20100;-63
2021/11/22 03:52:44;;;;;;;39.13;19.42;;;4.70;99.90;;;;;;5073996;28;20450;-64
2021/11/22 03:55:10;;;;;;;35.25;19.92;;;5.00;99.90;;;;;;5066487;28;20056;-64
2021/11/22 03:57:35;;;;;;;36.38;18.83;;;5.10;99.90;;;;;;5071255;28;20482;-64
2021/11/22 04:00:03;;;;;;;39.92;19.00;;;4.60;99.90;;;;;;5069097;28;20017;-64
2021/11/22 04:02:29;;;;;;;43.65;20.30;;;5.00;99.90;;;;;;5073551;28;20029;-64
2021/11/22 04:04:55;;;;;;;42.35;20.80;;;5.40;99.90;;;;;;5069423;28;20378;-64
2021/11/22 04:07:20;;;;;;;38.40;19.33;;;5.20;99.90;;;;;;5063426;28;20467;-64
2021/11/22 04:09:46;;;;;;;35.38;18.90;;;5.00;99.90;;;;;;5072834;28;20032;-64
2021/11/22 04:12:12;;;;;;;39.90;19.73;;;5.10;99.90;;;;;;5070311;28;20024;-64
2021/11/22 04:14:38;;;;;;;36.40;18.63;;;;;;;;;;5061427;28;20027;-63
2021/11/22 04:17:03;;;;;;;35.83;19.30;;;5.10;99.90;;;;;;5071584;28;20029;-64
2021/11/22 04:19:29;;;;;;;36.90;19.75;;;5.50;99.90;;;;;;5050947;28;20032;-63
2021/11/22 04:21:55;;;;;;;38.40;20.00;;;5.60;99.90;;;;;;5070364;28;20029;-63
2021/11/22 04:24:20;;;;;;;39.72;20.45;;;5.00;99.90;;;;;;5069943;28;20031;-64
2021/11/22 04:26:46;;;;;;;41.88;20.65;;;5.30;99.90;;;;;;5064646;28;20031;-64
2021/11/22 04:29:12;;;;;;;37.03;19.13;;;;;;;;;;5070345;28;20095;-63
2021/11/22 04:31:38;;;;;;;40.15;19.60;;;4.90;99.90;;;;;;5070044;28;20409;-64
2021/11/22 04:34:03;;;;;;;37.80;19.08;;;5.20;99.90;;;;;;5069877;28;20032;-63
2021/11/22 04:36:29;;;;;;;38.83;18.30;;;5.00;99.90;;;;;;5072336;28;20032;-64
2021/11/22 04:38:55;;;;;;;40.13;20.02;;;5.20;99.90;;;;;;5066689;28;20035;-62
2021/11/22 04:41:21;;;;;;;38.08;20.08;;;5.00;99.90;;;;;;5061966;28;20511;-64
2021/11/22 04:43:47;;;;;;;39.15;19.83;;;4.90;99.90;;;;;;5066887;28;20441;-64
2021/11/22 04:46:12;;;;;;;39.28;19.35;;;5.10;99.90;;;;;;5071964;28;20075;-63
2021/11/22 04:48:38;;;;;;;37.95;19.77;;;4.90;99.90;;;;;;5070027;28;20116;-63
2021/11/22 04:51:04;;;;;;;36.17;19.10;;;5.00;99.90;;;;;;5050820;28;20029;-63
2021/11/22 04:53:29;;;;;;;37.53;19.08;;;5.10;99.90;;;;;;5068198;28;20021;-63
2021/11/22 04:55:55;;;;;;;32.83;17.50;;;5.20;99.90;;;;;;5069144;28;20031;-63
2021/11/22 04:58:21;;;;;;;38.17;19.23;;;5.30;99.90;;;;;;5064802;28;20029;-63
2021/11/22 05:00:46;;;;;;;39.78;20.52;;;4.70;99.90;;;;;;5069613;28;20025;-63
2021/11/22 05:03:12;;;;;;;38.00;19.23;;;4.90;99.90;;;;;;5074598;28;20021;-64
2021/11/22 05:05:38;;;;;;;33.42;17.98;;;4.90;99.90;;;;;;5087731;28;20044;-64
2021/11/22 05:08:08;;;;;;;34.53;17.85;;;5.10;99.90;;;;;;5074063;28;20047;-63
2021/11/22 05:10:44;;;;;;;31.63;17.38;;;5.30;99.90;;;;;;5059608;28;20435;-63
2021/11/22 05:13:12;;;;;;;33.28;17.25;;;5.50;99.90;;;;;;5056180;28;20052;-61
2021/11/22 05:15:40;;;;;;;36.10;18.48;;;5.20;99.90;;;;;;5060891;28;20041;-62
2021/11/22 05:18:08;;;;;;;30.98;18.25;;;4.80;99.90;;;;;;5072525;28;20424;-63
2021/11/22 05:20:35;;;;;;;30.33;17.02;;;5.00;99.90;;;;;;5069305;28;20037;-63
2021/11/22 05:23:01;;;;;;;28.70;17.13;;;5.40;99.90;;;;;;5061140;28;20394;-63
2021/11/22 05:25:27;;;;;;;38.35;18.75;;;5.10;99.90;;;;;;5071721;28;20025;-62
2021/11/22 05:27:53;;;;;;;34.28;18.40;;;5.50;99.90;;;;;;5058913;28;20379;-63
2021/11/22 05:30:22;;;;;;;32.47;17.75;;;5.30;99.90;;;;;;5058137;28;20344;-63
2021/11/22 05:32:48;;;;;;;35.05;17.60;;;5.30;99.90;;;;;;5055092;28;20037;-67
2021/11/22 05:35:14;;;;;;;32.15;17.00;;;5.00;99.90;;;;;;5051798;28;20107;-66
2021/11/22 05:37:41;;;;;;;30.08;16.83;;;4.50;99.90;;;;;;5057288;28;20124;-66
2021/11/22 05:40:07;;;;;;;32.28;17.00;;;5.20;99.90;;;;;;5056914;28;20503;-67
2021/11/22 05:42:33;;;;;;;32.17;17.58;;;5.00;99.90;;;;;;5067787;28;20025;-67
2021/11/22 05:44:58;;;;;;;32.72;17.95;;;5.10;99.90;;;;;;5068043;28;20036;-67
2021/11/22 05:47:25;;;;;;;37.42;18.08;;;5.00;99.90;;;;;;5062973;28;20517;-67
2021/11/22 05:49:51;;;;;;;29.08;16.17;;;5.00;99.90;;;;;;5070517;28;20016;-66
2021/11/22 05:52:18;;;;;;;32.58;17.40;;;4.90;99.90;;;;;;5062252;28;20032;-67
2021/11/22 05:54:49;;;;;;;33.88;17.70;;;5.30;99.90;;;;;;5061713;28;20032;-67
2021/11/22 05:57:15;;;;;;;28.15;16.40;;;5.20;99.90;;;;;;5071760;28;20036;-68
2021/11/22 05:59:40;;;;;;;31.98;16.83;;;5.40;99.90;;;;;;5068912;28;20028;-68
2021/11/22 06:02:06;;;;;;;30.65;17.00;;;5.00;99.90;;;;;;5068612;28;20056;-69
2021/11/22 06:08:52;;;;;;;30.52;16.67;;;5.20;99.90;;;;;;5048842;28;20052;-75
2021/11/22 06:11:18;;;;;;;32.78;17.40;;;5.20;99.90;;;;;;4997310;28;20479;-76
2021/11/22 06:13:43;;;;;;;33.75;17.45;;;4.70;99.90;;;;;;5062840;28;20039;-76
2021/11/22 06:16:09;;;;;;;36.95;17.73;;;5.70;99.90;;;;;;5069275;28;20032;-70
2021/11/22 06:18:35;;;;;;;30.00;16.83;;;5.40;99.90;;;;;;5066420;28;20029;-70
2021/11/22 06:21:00;;;;;;;29.35;17.17;;;5.20;99.90;;;;;;5068521;28;20017;-69
2021/11/22 06:23:26;;;;;;;30.33;17.10;;;5.30;99.90;;;;;;5071939;28;20479;-69
2021/11/22 06:25:52;;;;;;;29.85;16.38;;;5.10;99.90;;;;;;5059448;28;20051;-69
2021/11/22 06:28:19;;;;;;;27.63;15.07;;;5.20;99.90;;;;;;5068407;28;20031;-69
2021/11/22 06:30:46;;;;;;;23.73;14.10;;;5.10;99.90;;;;;;5048465;28;20025;-70
2021/11/22 06:33:11;;;;;;;28.55;16.23;;;5.20;99.90;;;;;;5065606;28;20491;-68
2021/11/22 06:35:37;;;;;;;26.38;15.77;;;5.10;99.90;;;;;;5066967;28;20081;-70
2021/11/22 06:38:04;;;;;;;28.38;15.75;;;5.20;99.90;;;;;;5048913;28;20116;-69
2021/11/22 06:40:30;;;;;;;25.25;15.20;;;5.30;99.90;;;;;;5059745;28;20104;-70
2021/11/22 06:42:55;;;;;;;32.28;16.92;;;5.40;99.90;;;;;;5031770;28;20443;-69
2021/11/22 06:45:21;;;;;;;33.45;18.45;;;5.10;99.90;;;;;;5061548;28;20085;-70
2021/11/22 06:47:47;;;;;;;38.28;19.95;;;5.60;99.90;;;;;;5066134;28;20475;-69
2021/11/22 06:50:13;;;;;;;37.38;18.58;;;5.10;99.90;;;;;;5050637;28;20398;-69
2021/11/22 06:52:39;;;;;;;32.83;18.05;;;5.00;99.90;;;;;;5053530;28;20020;-69
2021/11/22 06:55:05;;;;;;;35.70;19.27;;;5.20;99.90;;;;;;5065780;28;20032;-69
2021/11/22 06:57:31;;;;;;;38.97;19.10;;;5.10;99.90;;;;;;5060373;28;20030;-69
2021/11/22 06:59:57;;;;;;;39.72;18.70;;;5.50;99.90;;;;;;5051011;28;20021;-72
2021/11/22 07:02:24;;;;;;;33.03;16.85;;;5.30;99.90;;;;;;5031650;28;20029;-69
2021/11/22 07:04:51;;;;;;;34.33;17.77;;;5.60;99.90;;;;;;5058719;28;20551;-69
2021/11/22 07:07:17;;;;;;;30.35;15.73;;;5.10;99.90;;;;;;5066549;28;20648;-69
2021/11/22 07:09:44;;;;;;;29.48;16.73;;;5.20;99.90;;;;;;5063072;28;20096;-68
2021/11/22 07:12:10;;;;;;;38.13;17.60;;;5.30;99.90;;;;;;5064190;28;20494;-64
2021/11/22 07:14:38;;;;;;;36.55;18.60;;;5.10;99.90;;;;;;5070009;28;20037;-64
2021/11/22 07:17:05;;;;;;;40.78;20.08;;;5.30;99.90;;;;;;5052410;28;20037;-66
2021/11/22 07:19:31;;;;;;;38.45;18.77;;;5.00;99.90;;;;;;5070676;28;20043;-64
2021/11/22 07:22:00;;;;;;;41.55;19.50;;;5.10;99.90;;;;;;5066658;28;20028;-65
2021/11/22 07:24:26;;;;;;;38.25;19.90;;;5.10;99.90;;;;;;5065990;28;20063;-64
2021/11/22 07:26:52;;;;;;;36.88;18.90;;;5.10;99.90;;;;;;5056624;28;20027;-64
2021/11/22 07:29:18;;;;;;;42.42;21.02;;;5.20;99.90;;;;;;5063376;28;20021;-64
2021/11/22 07:31:44;;;;;;;42.63;21.45;;;5.10;99.90;;;;;;5071083;28;20032;-65
2021/11/22 07:34:09;;;;;;;41.30;20.35;;;5.10;99.90;;;;;;5072628;28;20039;-65
2021/11/22 07:36:35;;;;;;;42.05;21.05;;;5.20;99.90;;;;;;5063623;28;20032;-64
2021/11/22 07:39:01;;;;;;;40.35;20.42;;;5.30;99.90;;;;;;5071315;28;20494;-63
2021/11/22 07:41:27;;;;;;;37.42;20.27;;;5.40;99.90;;;;;;5057703;28;20036;-62
2021/11/22 07:43:53;;;;;;;42.40;20.25;;;5.40;99.90;;;;;;5075241;28;20033;-64
2021/11/22 07:46:19;;;;;;;35.33;18.77;;;5.30;99.90;;;;;;5070643;28;20028;-64
2021/11/22 07:48:45;;;;;;;37.95;20.60;;;5.40;99.90;;;;;;5043754;28;20554;-64
2021/11/22 07:51:11;;;;;;;37.75;19.27;;;3.20;99.90;;;;;;5073832;28;20143;-63
2021/11/22 07:53:39;;;;;;;35.33;18.45;;;5.30;99.90;;;;;;5062755;28;20081;-64
2021/11/22 07:56:05;;;;;;;29.73;17.48;;;5.50;99.90;;;;;;5070001;28;20029;-64
2021/11/22 07:58:32;;;;;;;32.53;17.20;;;5.40;99.90;;;;;;5073861;28;20016;-64
2021/11/22 08:00:58;;;;;;;31.67;17.08;;;5.30;99.90;;;;;;5068962;28;20031;-65
2021/11/22 08:03:23;;;;;;;29.02;16.05;;;6.60;99.90;;;;;;5052408;28;20032;-63
2021/11/22 08:05:53;;;;;;;32.50;16.50;;;5.50;99.90;;;;;;5064486;28;20662;-64
2021/11/22 08:08:21;;;;;;;27.35;16.38;;;5.30;99.90;;;;;;5070658;28;20071;-64
2021/11/22 08:10:52;;;;;;;31.63;16.48;;;5.30;99.90;;;;;;5060259;28;20392;-64
2021/11/22 08:13:18;;;;;;;36.65;18.80;;;5.60;99.90;;;;;;5068756;28;20058;-64
2021/11/22 08:15:43;;;;;;;33.97;17.65;;;5.60;99.90;;;;;;5070100;28;20036;-64
2021/11/22 08:18:09;;;;;;;33.60;18.45;;;5.80;99.90;;;;;;5065416;28;20025;-64
2021/11/22 08:20:36;;;;;;;37.70;19.15;;;5.40;99.90;;;;;;5071124;28;20475;-65
2021/11/22 08:23:02;;;;;;;34.38;17.88;;;5.50;99.90;;;;;;5071107;28;20033;-64
2021/11/22 08:25:31;;;;;;;34.42;18.13;;;5.40;99.90;;;;;;5059460;28;20030;-63
2021/11/22 08:27:57;;;;;;;35.42;18.73;;;5.80;99.90;;;;;;5034024;28;20028;-63
2021/11/22 08:30:25;;;;;;;36.38;19.52;;;5.50;99.90;;;;;;5058399;28;20032;-63
2021/11/22 08:32:53;;;;;;;37.33;18.70;;;5.40;99.90;;;;;;5071171;28;20390;-64
2021/11/22 08:35:20;;;;;;;31.75;17.60;;;5.50;99.90;;;;;;5065612;28;20175;-64
2021/11/22 08:37:47;;;;;;;33.30;18.25;;;5.80;99.90;;;;;;5060274;28;20029;-63
2021/11/22 08:40:17;;;;;;;32.90;17.63;;;5.90;99.90;;;;;;5066669;28;20029;-64
2021/11/22 08:42:44;;;;;;;35.03;18.02;;;5.60;99.90;;;;;;5055610;28;20037;-63
2021/11/22 08:45:10;;;;;;;32.88;17.17;;;5.70;99.90;;;;;;5072496;28;20024;-63
2021/11/22 08:47:36;;;;;;;32.40;17.27;;;5.80;99.90;;;;;;5060850;28;20495;-63
2021/11/22 08:50:03;;;;;;;32.17;17.48;;;5.70;99.90;;;;;;5051304;28;20107;-63
2021/11/22 08:52:29;;;;;;;26.13;15.88;;;5.70;99.90;;;;;;5050182;28;20028;-63
2021/11/22 08:54:54;;;;;;;28.52;15.32;;;5.80;99.90;;;;;;5035571;28;20107;-63
2021/11/22 08:57:21;;;;;;;26.65;16.23;;;5.90;99.90;;;;;;5035187;28;20032;-63
2021/11/22 08:59:47;;;;;;;24.48;14.25;;;5.90;99.90;;;;;;5039565;28;20031;-63
2021/11/22 09:02:14;;;;;;;25.15;14.43;;;5.90;99.90;;;;;;5072827;28;20067;-63
2021/11/22 09:04:41;;;;;;;21.20;12.95;;;6.20;99.90;;;;;;5068395;28;20016;-63
2021/11/22 09:07:08;;;;;;;22.58;13.52;;;6.10;99.90;;;;;;5063581;28;20073;-63
2021/11/22 09:09:34;;;;;;;21.52;13.43;;;5.80;99.90;;;;;;5073083;28;20108;-63
2021/11/22 09:12:00;;;;;;;25.73;13.52;;;6.00;99.90;;;;;;5055049;28;21045;-64
2021/11/22 09:14:25;;;;;;;24.05;14.40;;;6.00;99.90;;;;;;5070886;28;20028;-63
2021/11/22 09:16:51;;;;;;;26.20;14.40;;;6.00;99.90;;;;;;5068121;28;20035;-63
2021/11/22 09:19:17;;;;;;;22.45;13.77;;;5.90;99.90;;;;;;5049646;28;20086;-63
2021/11/22 09:21:43;;;;;;;23.02;13.25;;;5.90;99.90;;;;;;5071958;28;20032;-64
2021/11/22 09:24:10;;;;;;;23.65;13.75;;;6.00;99.90;;;;;;5046324;28;20034;-64
2021/11/22 09:26:36;;;;;;;25.92;14.13;;;6.00;99.90;;;;;;5068077;28;20078;-63
2021/11/22 09:29:03;;;;;;;23.20;14.30;;;5.80;99.90;;;;;;5063583;28;20034;-64
2021/11/22 09:31:29;;;;;;;24.58;15.13;;;6.00;99.90;;;;;;5034166;28;20036;-64
2021/11/22 09:33:54;;;;;;;21.58;13.52;;;6.00;99.90;;;;;;5032677;28;20022;-65
2021/11/22 09:36:21;;;;;;;25.67;14.90;;;6.00;99.90;;;;;;5051195;28;20028;-65
2021/11/22 09:38:48;;;;;;;28.73;15.52;;;6.10;99.90;;;;;;5071271;28;20107;-65
2021/11/22 09:41:14;;;;;;;25.77;14.88;;;6.00;99.90;;;;;;5051356;28;20034;-64
2021/11/22 09:43:44;;;;;;;29.45;15.75;;;6.20;99.90;;;;;;5069402;28;20031;-65
2021/11/22 09:46:11;;;;;;;26.65;15.32;;;6.00;99.90;;;;;;5067710;28;20517;-65
2021/11/22 09:48:37;;;;;;;27.48;15.48;;;6.20;99.90;;;;;;5061090;28;20555;-65
2021/11/22 09:51:03;;;;;;;27.33;15.38;;;5.60;99.90;;;;;;5107982;22;20185;-63
2021/11/22 09:53:29;;;;;;;27.55;15.55;;;6.00;99.90;;;;;;5067126;28;20103;-64
2021/11/22 09:55:55;;;;;;;29.17;15.85;;;6.20;99.90;;;;;;5071233;28;20073;-64
2021/11/22 09:58:20;;;;;;;23.90;14.95;;;6.20;99.90;;;;;;5069849;28;20028;-65
2021/11/22 10:00:50;;;;;;;28.17;15.27;;;6.60;99.90;;;;;;5065499;28;20017;-64
2021/11/22 10:03:21;;;;;;;25.17;15.50;;;6.00;99.90;;;;;;5051629;28;20036;-66
2021/11/22 10:05:53;;;;;;;25.17;15.23;;;6.10;99.90;;;;;;5045382;28;20102;-63
2021/11/22 10:08:19;;;;;;;25.13;14.18;;;6.60;99.90;;;;;;5049672;28;20104;-64
2021/11/22 10:10:52;;;;;;;25.23;14.93;;;5.90;99.90;;;;;;5049923;28;20029;-69
2021/11/22 10:13:42;;;;;;;25.80;14.57;;;6.10;99.90;;;;;;5051527;28;20040;-63
2021/11/22 10:16:11;;;;;;;24.33;14.05;;;6.30;99.90;;;;;;5047305;28;20040;-65
2021/11/22 10:18:48;;;;;;;26.20;14.05;;;5.90;99.90;;;;;;5045140;28;20685;-64
2021/11/22 10:21:20;;;;;;;20.73;12.18;;;6.20;99.90;;;;;;5051967;28;20109;-65
2021/11/22 10:23:48;;;;;;;19.98;11.88;;;6.30;99.90;;;;;;5032441;28;20033;-64
2021/11/22 10:26:16;;;;;;;15.43;10.65;;;6.40;99.90;;;;;;5039457;28;20021;-64
2021/11/22 10:28:46;;;;;;;19.63;12.77;;;6.70;99.90;;;;;;5047831;28;20452;-64
2021/11/22 10:31:21;;;;;;;20.75;14.02;;;6.50;99.90;;;;;;5048378;28;20075;-63
2021/11/22 10:33:48;;;;;;;28.38;18.88;;;6.80;99.90;;;;;;5050058;28;20029;-64
2021/11/22 10:36:19;;;;;;;12.75;10.00;;;6.80;99.90;;;;;;5046925;28;20086;-65
2021/11/22 10:38:58;;;;;;;22.27;13.80;;;6.50;99.90;;;;;;5051728;28;20029;-65
2021/11/22 10:41:30;;;;;;;20.83;12.93;;;6.60;99.90;;;;;;5045709;28;20180;-64
2021/11/22 10:44:00;;;;;;;24.83;14.98;;;6.60;99.90;;;;;;5050897;28;20056;-65
2021/11/22 10:46:44;;;;;;;17.60;12.82;;;6.70;99.90;;;;;;5049022;28;20032;-64
2021/11/22 10:49:14;;;;;;;12.80;10.18;;;6.40;99.90;;;;;;5049457;28;20216;-64
2021/11/22 10:51:49;;;;;;;16.98;12.20;;;6.60;99.90;;;;;;5051121;28;20040;-64
2021/11/22 10:54:20;;;;;;;19.17;13.50;;;6.70;99.90;;;;;;5049600;28;20031;-64
2021/11/22 10:56:50;;;;;;;14.88;10.10;;;7.00;99.90;;;;;;5049707;28;20563;-63
2021/11/22 10:59:21;;;;;;;20.95;13.95;;;6.90;99.90;;;;;;5049258;28;20413;-64
2021/11/22 11:01:54;;;;;;;11.45;8.07;;;7.00;99.90;;;;;;5054825;28;20086;-64
2021/11/22 11:04:21;;;;;;;15.45;12.35;;;7.40;99.90;;;;;;5048426;28;20026;-64
2021/11/22 11:06:55;;;;;;;11.02;8.30;;;7.20;99.90;;;;;;5053164;28;20103;-64
2021/11/22 11:09:23;;;;;;;13.60;8.40;;;7.30;99.90;;;;;;5053186;28;20028;-64
2021/11/22 11:12:00;;;;;;;11.52;8.13;;;7.10;99.90;;;;;;5050442;28;20029;-64
2021/11/22 11:14:28;;;;;;;14.95;10.13;;;7.30;99.90;;;;;;5053151;28;20021;-64
2021/11/22 11:16:54;;;;;;;24.60;15.80;;;7.50;99.90;;;;;;5048895;28;20431;-65
2021/11/22 11:19:20;;;;;;;15.43;10.43;;;7.30;99.90;;;;;;5052582;28;20029;-64
2021/11/22 11:21:48;;;;;;;14.65;9.05;;;7.20;99.90;;;;;;5054388;28;20055;-64
2021/11/22 11:24:16;;;;;;;13.32;8.88;;;7.20;99.90;;;;;;5049319;28;20040;-64
2021/11/22 11:26:43;;;;;;;21.42;14.20;;;7.20;99.90;;;;;;5053642;28;20032;-63
2021/11/22 11:29:09;;;;;;;20.40;12.25;;;6.80;99.90;;;;;;5050466;28;20508;-64
2021/11/22 11:31:37;;;;;;;17.48;10.68;;;6.70;99.90;;;;;;5053016;28;20032;-64
2021/11/22 11:34:06;;;;;;;22.40;12.80;;;6.60;99.90;;;;;;5052727;28;20029;-64
2021/11/22 11:36:44;;;;;;;16.73;10.95;;;7.40;99.90;;;;;;5045586;28;20029;-65
2021/11/22 11:39:46;;;;;;;70.57;36.60;;;7.10;99.90;;;;;;5054522;28;20051;-64
2021/11/22 11:42:36;;;;;;;27.33;16.00;;;6.80;99.90;;;;;;5049945;28;20029;-64
2021/11/22 11:45:05;;;;;;;17.90;11.35;;;8.00;99.90;;;;;;5052381;28;20037;-64
2021/11/22 11:47:49;;;;;;;33.90;19.40;;;7.10;99.90;;;;;;5052289;28;20035;-64
2021/11/22 11:50:31;;;;;;;17.30;11.68;;;7.20;99.90;;;;;;5054985;28;20091;-64
2021/11/22 11:52:59;;;;;;;;;;;7.10;99.90;;;;;;5051874;28;20033;-64
2021/11/22 11:55:25;;;;;;;21.05;16.38;;;7.00;99.90;;;;;;5050011;28;19913;-64
2021/11/22 11:58:14;;;;;;;17.13;13.57;;;6.90;99.90;;;;;;5052992;28;20033;-65
2021/11/22 12:00:50;;;;;;;11.02;8.93;;;7.00;99.90;;;;;;5049861;28;20108;-65
2021/11/22 12:03:16;;;;;;;14.88;10.35;;;7.20;99.90;;;;;;5052149;28;20653;-65
2021/11/22 12:05:50;;;;;;;12.23;8.43;;;7.00;99.90;;;;;;5047632;28;20056;-64
2021/11/22 12:08:32;;;;;;;11.43;7.68;;;6.80;99.90;;;;;;5052520;28;20128;-65
2021/11/22 12:11:01;;;;;;;11.32;8.52;;;7.20;99.90;;;;;;5053741;28;20228;-65
2021/11/22 12:13:50;;;;;;;8.38;7.03;;;6.80;99.90;;;;;;5041673;28;20043;-65
2021/11/22 12:16:40;;;;;;;9.15;6.55;;;7.20;99.90;;;;;;5051201;28;20024;-64
2021/11/22 12:19:33;;;;;;;7.05;6.13;;;7.10;99.90;;;;;;5038721;28;20064;-64
2021/11/22 12:22:14;;;;;;;8.07;6.30;;;7.70;99.90;;;;;;5051742;28;20100;-65
2021/11/22 12:24:42;;;;;;;8.75;5.68;;;7.20;99.90;;;;;;5048135;28;20036;-64
2021/11/22 12:27:26;;;;;;;10.73;6.80;;;7.40;99.90;;;;;;5051954;28;20513;-65
2021/11/22 12:29:52;;;;;;;9.55;7.07;;;7.30;99.90;;;;;;5048033;28;20055;-64
2021/11/22 12:32:47;;;;;;;31.98;17.92;;;7.40;99.90;;;;;;5053029;28;20112;-65
2021/11/22 12:35:13;;;;;;;10.20;6.90;;;7.50;99.90;;;;;;5035534;28;20055;-65
2021/11/22 12:37:39;;;;;;;17.17;10.25;;;7.40;99.90;;;;;;5047911;28;20032;-66
2021/11/22 12:40:17;;;;;;;16.02;9.38;;;7.30;99.90;;;;;;5053371;28;20025;-64
2021/11/22 12:42:47;;;;;;;12.13;7.28;;;7.30;99.90;;;;;;5048693;28;20578;-66
2021/11/22 12:45:13;;;;;;;15.38;9.98;;;7.50;99.90;;;;;;5050765;28;20028;-65